createdAt,value
2023-03-26T00:00:09.537Z,98869.88
2023-03-26T00:03:20.679Z,98860.69
2023-03-26T00:06:13.854Z,98871.13
2023-03-26T00:09:00.721Z,98871.72
2023-03-26T00:11:47.574Z,98861.47
2023-03-26T00:14:36.448Z,98864.38
2023-03-26T00:17:25.875Z,98857.13
2023-03-26T00:20:13.536Z,98862.94
2023-03-26T00:23:04.794Z,98877.59
2023-03-26T00:25:51.881Z,98869.25
2023-03-26T00:28:40.898Z,98867.19
2023-03-26T00:31:28.116Z,98827.59
2023-03-26T00:34:25.930Z,98848.09
2023-03-26T00:37:15.261Z,98796.03
2023-03-26T00:40:07.788Z,98851.56
2023-03-26T00:42:58.554Z,98840.84
2023-03-26T00:45:50.377Z,98825.28
2023-03-26T00:51:34.303Z,98834.09
2023-03-26T00:54:30.164Z,98840.03
2023-03-26T00:57:28.875Z,98828.03
2023-03-26T01:00:29.448Z,98838.66
2023-03-26T01:03:26.805Z,98809.66
2023-03-26T01:06:36.655Z,98844.22
2023-03-26T01:09:33.233Z,98850.97
2023-03-26T01:12:22.471Z,98833.63
2023-03-26T01:15:11.487Z,98814.22
2023-03-26T01:18:01.246Z,98824.16
2023-03-26T01:20:50.365Z,98823.88
2023-03-26T01:23:44.066Z,98828.50
2023-03-26T01:26:34.968Z,98826.31
2023-03-26T01:29:34.108Z,98830.94
2023-03-26T01:32:40.407Z,98844.56
2023-03-26T01:36:03.941Z,98820.84
2023-03-26T01:39:18.901Z,98804.84
2023-03-26T01:42:20.557Z,98817.00
2023-03-26T01:45:12.237Z,98824.19
2023-03-26T01:48:02.865Z,98812.97
2023-03-26T01:50:53.722Z,98813.44
2023-03-26T01:53:48.538Z,98795.78
2023-03-26T01:57:00.245Z,98816.78
2023-03-26T02:00:26.209Z,98811.78
2023-03-26T02:03:33.276Z,98793.69
2023-03-26T02:06:25.967Z,98808.63
2023-03-26T02:09:17.053Z,98802.84
2023-03-26T02:12:04.865Z,98745.81
2023-03-26T02:14:52.048Z,98797.19
2023-03-26T02:17:40.675Z,98818.50
2023-03-26T02:20:30.410Z,98816.91
2023-03-26T02:23:16.893Z,98819.34
2023-03-26T02:26:11.423Z,98813.22
2023-03-26T02:29:11.258Z,98797.81
2023-03-26T02:32:02.480Z,98773.47
2023-03-26T02:34:51.656Z,98811.28
2023-03-26T02:37:40.080Z,98797.81
2023-03-26T02:40:37.000Z,98799.75
2023-03-26T02:43:27.273Z,98801.31
2023-03-26T02:46:24.397Z,98750.75
2023-03-26T02:49:18.235Z,98764.97
2023-03-26T02:52:06.931Z,98776.31
2023-03-26T02:54:56.027Z,98781.75
2023-03-26T02:57:44.453Z,98776.78
2023-03-26T03:00:47.443Z,98793.66
2023-03-26T03:03:56.154Z,98731.50
2023-03-26T03:06:57.660Z,98747.00
2023-03-26T03:09:44.947Z,98731.19
2023-03-26T03:13:06.081Z,98779.34
2023-03-26T03:15:53.522Z,98788.63
2023-03-26T03:18:40.629Z,98770.31
2023-03-26T03:21:32.487Z,98749.22
2023-03-26T03:24:19.444Z,98793.41
2023-03-26T03:27:10.438Z,98784.56
2023-03-26T03:30:09.220Z,98769.19
2023-03-26T03:33:02.739Z,98791.81
2023-03-26T03:35:50.903Z,98776.75
2023-03-26T03:38:39.770Z,98781.91
2023-03-26T03:41:29.241Z,98788.63
2023-03-26T03:44:17.100Z,98789.13
2023-03-26T03:47:04.421Z,98792.19
2023-03-26T03:49:55.911Z,98784.94
2023-03-26T03:52:43.698Z,98777.75
2023-03-26T03:55:40.212Z,98763.00
2023-03-26T03:58:31.760Z,98778.81
2023-03-26T04:01:32.060Z,98786.22
2023-03-26T04:04:29.328Z,98786.22
2023-03-26T04:07:21.286Z,98764.75
2023-03-26T04:10:27.069Z,98782.88
2023-03-26T04:13:44.318Z,98717.69
2023-03-26T04:16:54.099Z,98782.56
2023-03-26T04:19:44.594Z,98766.22
2023-03-26T04:22:35.105Z,98746.06
2023-03-26T04:25:30.523Z,98764.41
2023-03-26T04:28:32.614Z,98764.41
2023-03-26T04:31:34.369Z,98777.38
2023-03-26T04:34:29.163Z,98750.97
2023-03-26T04:37:31.160Z,98774.38
2023-03-26T04:40:30.792Z,98773.19
2023-03-26T04:43:35.806Z,98757.53
2023-03-26T04:46:29.117Z,98769.78
2023-03-26T04:49:31.787Z,98757.47
2023-03-26T04:52:19.536Z,98768.19
2023-03-26T04:55:24.623Z,98769.66
2023-03-26T04:58:21.912Z,98739.72
2023-03-26T05:01:16.991Z,98765.66
2023-03-26T05:04:15.839Z,98777.22
2023-03-26T05:07:03.563Z,98784.16
2023-03-26T05:10:05.965Z,98792.81
2023-03-26T05:13:01.497Z,98730.38
2023-03-26T05:15:53.660Z,98793.13
2023-03-26T05:18:54.327Z,98785.78
2023-03-26T05:21:42.542Z,98785.78
2023-03-26T05:24:29.396Z,98777.41
2023-03-26T05:27:23.155Z,98772.78
2023-03-26T05:30:20.615Z,98761.25
2023-03-26T05:33:17.086Z,98781.91
2023-03-26T05:36:17.422Z,98725.38
2023-03-26T05:39:10.267Z,98777.41
2023-03-26T05:42:32.739Z,98785.41
2023-03-26T05:45:48.301Z,98786.88
2023-03-26T05:48:42.759Z,98776.09
2023-03-26T05:51:36.725Z,98788.78
2023-03-26T05:54:51.524Z,98795.16
2023-03-26T05:57:59.729Z,98750.00
2023-03-26T06:01:17.249Z,98776.19
2023-03-26T06:04:25.236Z,98797.31
2023-03-26T06:07:34.140Z,98805.44
2023-03-26T06:10:41.836Z,98764.13
2023-03-26T06:13:28.954Z,98811.84
2023-03-26T06:16:27.190Z,98801.88
2023-03-26T06:19:40.639Z,98815.63
2023-03-26T06:22:40.941Z,98809.22
2023-03-26T06:25:46.175Z,98812.25
2023-03-26T06:28:56.897Z,98821.41
2023-03-26T06:32:18.356Z,98822.34
2023-03-26T06:35:18.235Z,98825.53
2023-03-26T06:38:12.953Z,98830.66
2023-03-26T06:41:06.361Z,98813.47
2023-03-26T06:44:11.701Z,98821.00
2023-03-26T06:47:17.473Z,98826.47
2023-03-26T06:50:11.731Z,98826.31
2023-03-26T06:53:17.269Z,98820.13
2023-03-26T06:56:09.316Z,98832.13
2023-03-26T06:59:24.675Z,98821.06
2023-03-26T07:02:30.234Z,98795.75
2023-03-26T07:05:35.592Z,98831.19
2023-03-26T07:08:59.206Z,98826.56
2023-03-26T07:12:18.664Z,98835.06
2023-03-26T07:15:43.286Z,98840.53
2023-03-26T07:18:30.263Z,98843.59
2023-03-26T07:21:23.226Z,98821.16
2023-03-26T07:24:12.314Z,98847.41
2023-03-26T07:27:22.632Z,98849.84
2023-03-26T07:30:16.004Z,98799.25
2023-03-26T07:33:37.965Z,98854.47
2023-03-26T07:36:58.615Z,98860.28
2023-03-26T07:40:21.666Z,98799.91
2023-03-26T07:44:04.656Z,98859.31
2023-03-26T07:47:31.828Z,98859.19
2023-03-26T07:50:37.090Z,98868.28
2023-03-26T07:53:46.958Z,98865.09
2023-03-26T07:57:04.840Z,98845.34
2023-03-26T08:00:27.529Z,98874.03
2023-03-26T08:03:38.544Z,98877.88
2023-03-26T08:07:03.808Z,98860.16
2023-03-26T08:13:51.577Z,98875.53
2023-03-26T08:17:03.040Z,98881.75
2023-03-26T08:20:23.230Z,98823.28
2023-03-26T08:23:22.004Z,98874.69
2023-03-26T08:26:44.317Z,98879.19
2023-03-26T08:29:38.025Z,98878.41
2023-03-26T08:32:28.796Z,98845.16
2023-03-26T08:35:15.694Z,98872.00
2023-03-26T08:38:05.702Z,98876.34
2023-03-26T08:40:55.611Z,98861.75
2023-03-26T08:43:48.601Z,98881.16
2023-03-26T08:47:01.071Z,98870.38
2023-03-26T08:50:19.032Z,98876.56
2023-03-26T08:53:24.421Z,98881.47
2023-03-26T08:56:24.561Z,98879.06
2023-03-26T08:59:15.192Z,98883.59
2023-03-26T09:02:24.759Z,98871.72
2023-03-26T09:05:35.654Z,98879.34
2023-03-26T09:08:29.908Z,98867.97
2023-03-26T09:11:27.671Z,98873.84
2023-03-26T09:14:35.702Z,98865.19
2023-03-26T09:18:01.852Z,98877.38
2023-03-26T09:20:49.208Z,98880.72
2023-03-26T09:23:39.698Z,98875.56
2023-03-26T09:26:45.119Z,98872.13
2023-03-26T09:30:02.590Z,98866.91
2023-03-26T09:33:14.854Z,98876.13
2023-03-26T09:36:24.610Z,98875.34
2023-03-26T09:39:45.017Z,98870.75
2023-03-26T09:42:37.596Z,98871.97
2023-03-26T09:46:02.219Z,98876.06
2023-03-26T09:49:08.217Z,98868.78
2023-03-26T09:51:55.676Z,98875.63
2023-03-26T09:55:39.634Z,98823.56
2023-03-26T09:58:47.178Z,98876.72
2023-03-26T10:02:07.524Z,98853.69
2023-03-26T10:05:17.015Z,98857.81
2023-03-26T10:08:20.480Z,98857.16
2023-03-26T10:11:34.952Z,98867.78
2023-03-26T10:14:37.908Z,98889.25
2023-03-26T10:17:34.427Z,98883.19
2023-03-26T10:20:43.772Z,98879.47
2023-03-26T10:23:46.481Z,98816.88
2023-03-26T10:27:08.904Z,98882.09
2023-03-26T10:30:37.833Z,98888.81
2023-03-26T10:33:49.729Z,98886.84
2023-03-26T10:36:40.970Z,98881.22
2023-03-26T10:39:55.704Z,98882.94
2023-03-26T10:42:45.308Z,98884.66
2023-03-26T10:45:37.176Z,98880.78
2023-03-26T10:49:04.977Z,98815.28
2023-03-26T10:52:04.831Z,98866.44
2023-03-26T10:55:19.972Z,98843.13
2023-03-26T10:58:18.164Z,98867.84
2023-03-26T11:01:12.455Z,98873.75
2023-03-26T11:04:11.138Z,98859.91
2023-03-26T11:07:01.581Z,98859.41
2023-03-26T11:10:20.044Z,98853.59
2023-03-26T11:13:29.215Z,98856.19
2023-03-26T11:16:24.753Z,98869.91
2023-03-26T11:19:31.690Z,98866.38
2023-03-26T11:22:37.810Z,98863.53
2023-03-26T11:26:06.667Z,98859.38
2023-03-26T11:29:32.823Z,98827.56
2023-03-26T11:32:25.938Z,98857.69
2023-03-26T11:35:18.049Z,98860.88
2023-03-26T11:38:35.976Z,98858.16
2023-03-26T11:41:31.976Z,98857.25
2023-03-26T11:44:35.130Z,98860.56
2023-03-26T11:47:49.758Z,98850.56
2023-03-26T11:50:41.364Z,98836.25
2023-03-26T11:53:30.431Z,98846.03
2023-03-26T11:56:35.419Z,98796.06
2023-03-26T11:59:48.958Z,98849.88
2023-03-26T12:02:41.382Z,98861.06
2023-03-26T12:05:37.815Z,98844.00
2023-03-26T12:08:39.858Z,98853.59
2023-03-26T12:11:36.201Z,98839.31
2023-03-26T12:14:31.155Z,98860.13
2023-03-26T12:17:54.427Z,98851.78
2023-03-26T12:20:43.064Z,98860.22
2023-03-26T12:24:03.891Z,98863.88
2023-03-26T12:27:31.298Z,98858.56
2023-03-26T12:30:37.742Z,98859.03
2023-03-26T12:33:35.770Z,98805.41
2023-03-26T12:36:31.683Z,98854.53
2023-03-26T12:40:08.705Z,98840.19
2023-03-26T12:44:48.857Z,98837.00
2023-03-26T12:47:46.264Z,98854.88
2023-03-26T12:49:07.557Z,98845.16
2023-03-26T12:51:58.048Z,98841.72
2023-03-26T12:54:57.712Z,98842.06
2023-03-26T12:57:53.075Z,98841.41
2023-03-26T13:01:03.317Z,98822.31
2023-03-26T13:04:21.489Z,98846.59
2023-03-26T13:07:17.571Z,98817.97
2023-03-26T13:10:19.818Z,98845.66
2023-03-26T13:13:44.687Z,98848.06
2023-03-26T13:16:41.739Z,98863.16
2023-03-26T13:19:55.132Z,98867.00
2023-03-26T13:23:00.965Z,98827.81
2023-03-26T13:26:06.680Z,98866.97
2023-03-26T13:29:02.986Z,98865.84
2023-03-26T13:32:16.452Z,98867.69
2023-03-26T13:35:24.621Z,98856.59
2023-03-26T13:38:29.622Z,98843.16
2023-03-26T13:41:20.037Z,98855.91
2023-03-26T13:44:16.149Z,98843.03
2023-03-26T13:47:35.975Z,98843.59
2023-03-26T13:50:30.230Z,98786.84
2023-03-26T13:53:33.052Z,98850.22
2023-03-26T13:56:37.388Z,98846.44
2023-03-26T13:59:41.904Z,98845.66
2023-03-26T14:02:44.027Z,98838.69
2023-03-26T14:05:47.768Z,98815.50
2023-03-26T14:08:42.052Z,98842.00
2023-03-26T14:11:40.660Z,98841.78
2023-03-26T14:14:40.090Z,98830.47
2023-03-26T14:17:52.183Z,98833.31
2023-03-26T14:21:14.104Z,98834.56
2023-03-26T14:24:12.343Z,98839.34
2023-03-26T14:27:33.638Z,98843.94
2023-03-26T14:30:43.389Z,98850.09
2023-03-26T14:33:50.738Z,98837.66
2023-03-26T14:37:14.039Z,98846.56
2023-03-26T14:40:31.422Z,98839.38
2023-03-26T14:43:55.669Z,98836.97
2023-03-26T14:47:14.808Z,98837.66
2023-03-26T14:50:06.736Z,98836.97
2023-03-26T14:53:01.381Z,98839.72
2023-03-26T14:55:56.852Z,98779.31
2023-03-26T14:59:11.403Z,98834.59
2023-03-26T15:02:19.127Z,98842.91
2023-03-26T15:05:45.877Z,98843.59
2023-03-26T15:08:58.792Z,98779.31
2023-03-26T15:12:12.277Z,98810.94
2023-03-26T15:15:00.274Z,98831.63
2023-03-26T15:18:18.444Z,98814.06
2023-03-26T15:21:32.636Z,98828.44
2023-03-26T15:24:46.886Z,98827.84
2023-03-26T15:27:40.017Z,98830.59
2023-03-26T15:30:52.789Z,98813.34
2023-03-26T15:34:20.123Z,98831.84
2023-03-26T15:37:12.188Z,98835.38
2023-03-26T15:40:27.264Z,98839.38
2023-03-26T15:43:19.468Z,98813.81
2023-03-26T15:46:36.281Z,98828.66
2023-03-26T15:49:59.380Z,98839.69
2023-03-26T15:52:52.198Z,98843.81
2023-03-26T15:56:11.051Z,98818.69
2023-03-26T15:59:06.206Z,98793.91
2023-03-26T16:02:34.972Z,98843.66
2023-03-26T16:05:25.475Z,98843.44
2023-03-26T16:08:31.868Z,98834.78
2023-03-26T16:11:57.245Z,98841.28
2023-03-26T16:14:49.391Z,98846.28
2023-03-26T16:18:11.940Z,98843.56
2023-03-26T16:21:31.660Z,98818.78
2023-03-26T16:24:24.640Z,98817.84
2023-03-26T16:27:13.713Z,98839.09
2023-03-26T16:30:00.345Z,98812.47
2023-03-26T16:32:49.022Z,98848.53
2023-03-26T16:35:40.150Z,98807.09
2023-03-26T16:38:36.518Z,98828.78
2023-03-26T16:41:35.309Z,98848.41
2023-03-26T16:44:34.887Z,98790.72
2023-03-26T16:47:28.386Z,98824.06
2023-03-26T16:50:35.890Z,98845.66
2023-03-26T16:54:06.386Z,98841.31
2023-03-26T16:57:13.423Z,98845.53
2023-03-26T17:00:07.381Z,98839.09
2023-03-26T17:03:08.314Z,98839.31
2023-03-26T17:06:03.799Z,98779.44
2023-03-26T17:08:57.527Z,98843.63
2023-03-26T17:12:04.909Z,98822.81
2023-03-26T17:14:54.132Z,98836.34
2023-03-26T17:17:46.982Z,98838.75
2023-03-26T17:21:11.426Z,98828.53
2023-03-26T17:24:15.160Z,98828.59
2023-03-26T17:31:20.736Z,98836.00
2023-03-26T17:54:29.666Z,98848.41
2023-03-26T17:57:33.140Z,98841.19
2023-03-26T18:00:27.754Z,98844.91
2023-03-26T18:03:19.969Z,98846.50
2023-03-26T18:06:32.954Z,98838.88
2023-03-26T18:09:38.687Z,98850.44
2023-03-26T18:12:44.310Z,98847.59
2023-03-26T18:15:52.876Z,98852.94
2023-03-26T18:18:46.903Z,98857.75
2023-03-26T18:21:38.357Z,98854.34
2023-03-26T18:24:28.630Z,98853.88
2023-03-26T18:27:39.929Z,98851.66
2023-03-26T18:30:29.112Z,98853.47
2023-03-26T18:33:16.433Z,98840.78
2023-03-26T18:36:11.411Z,98843.19
2023-03-26T18:39:02.152Z,98848.78
2023-03-26T18:41:53.176Z,98853.63
2023-03-26T18:44:39.943Z,98851.41
2023-03-26T18:47:28.819Z,98844.53
2023-03-26T18:50:30.616Z,98850.75
2023-03-26T18:53:28.911Z,98798.81
2023-03-26T18:56:41.730Z,98849.78
2023-03-26T18:59:35.970Z,98805.22
2023-03-26T19:02:29.527Z,98844.19
2023-03-26T19:05:17.888Z,98850.59
2023-03-26T19:08:06.586Z,98828.16
2023-03-26T19:10:53.904Z,98855.09
2023-03-26T19:13:44.083Z,98850.28
2023-03-26T19:16:34.199Z,98780.59
2023-03-26T19:19:27.229Z,98810.84
2023-03-26T19:22:14.008Z,98850.75
2023-03-26T19:25:02.252Z,98848.03
2023-03-26T19:28:08.947Z,98790.31
2023-03-26T19:30:59.030Z,98843.06
2023-03-26T19:33:47.035Z,98840.66
2023-03-26T19:36:35.372Z,98851.09
2023-03-26T19:39:37.408Z,98846.44
2023-03-26T19:42:43.448Z,98840.34
2023-03-26T19:45:34.549Z,98837.63
2023-03-26T19:48:46.132Z,98834.25
2023-03-26T19:51:33.632Z,98835.22
2023-03-26T19:54:26.401Z,98830.41
2023-03-26T19:57:14.724Z,98834.75
2023-03-26T20:00:01.736Z,98834.75
2023-03-26T20:02:51.428Z,98839.84
2023-03-26T20:05:38.134Z,98840.34
2023-03-26T20:08:28.040Z,98842.59
2023-03-26T20:11:21.008Z,98827.19
2023-03-26T20:14:21.779Z,98826.88
2023-03-26T20:17:14.390Z,98833.31
2023-03-26T20:20:05.944Z,98828.97
2023-03-26T20:22:56.665Z,98807.03
2023-03-26T20:25:54.315Z,98817.91
2023-03-26T20:28:47.726Z,98823.34
2023-03-26T20:31:36.456Z,98820.47
2023-03-26T20:34:23.971Z,98810.53
2023-03-26T20:37:14.981Z,98816.63
2023-03-26T20:40:01.367Z,98818.38
2023-03-26T20:42:50.467Z,98779.47
2023-03-26T20:45:37.099Z,98804.28
2023-03-26T20:48:26.686Z,98809.88
2023-03-26T20:51:17.226Z,98774.00
2023-03-26T20:54:08.207Z,98811.81
2023-03-26T20:56:55.375Z,98804.59
2023-03-26T20:59:46.030Z,98815.19
2023-03-26T21:02:33.044Z,98827.84
2023-03-26T21:05:25.956Z,98821.28
2023-03-26T21:08:18.617Z,98825.28
2023-03-26T21:11:27.298Z,98817.13
2023-03-26T21:14:50.051Z,98832.97
2023-03-26T21:17:36.809Z,98846.44
2023-03-26T21:20:25.556Z,98820.88
2023-03-26T21:23:25.901Z,98856.81
2023-03-26T21:26:19.127Z,98843.34
2023-03-26T21:29:08.558Z,98848.09
2023-03-26T21:32:04.514Z,98847.19
2023-03-26T21:34:58.732Z,98859.66
2023-03-26T21:37:48.924Z,98857.91
2023-03-26T21:40:35.617Z,98868.16
2023-03-26T21:43:23.044Z,98845.03
2023-03-26T21:46:12.850Z,98876.31
2023-03-26T21:49:06.178Z,98866.88
2023-03-26T21:51:53.891Z,98866.44
2023-03-26T21:54:44.196Z,98873.56
2023-03-26T21:57:50.860Z,98870.53
2023-03-26T22:01:22.501Z,98864.13
2023-03-26T22:04:22.113Z,98848.94
2023-03-26T22:07:19.617Z,98818.88
2023-03-26T22:10:06.709Z,98825.00
2023-03-26T22:12:53.750Z,98846.81
2023-03-26T22:15:41.355Z,98805.69
2023-03-26T22:18:30.618Z,98831.22
2023-03-26T22:21:20.824Z,98838.53
2023-03-26T22:24:10.315Z,98852.56
2023-03-26T22:26:58.805Z,98849.94
2023-03-26T22:29:46.603Z,98849.66
2023-03-26T22:32:34.404Z,98844.03
2023-03-26T22:35:21.185Z,98840.13
2023-03-26T22:38:09.885Z,98854.19
2023-03-26T22:40:59.707Z,98838.19
2023-03-26T22:43:46.567Z,98825.91
2023-03-26T22:46:33.278Z,98860.38
2023-03-26T22:49:22.119Z,98826.69
2023-03-26T22:52:09.570Z,98866.47
2023-03-26T22:54:59.740Z,98859.53
2023-03-26T22:57:51.327Z,98806.66
2023-03-26T23:00:41.860Z,98862.31
2023-03-26T23:03:35.165Z,98871.75
2023-03-26T23:06:26.138Z,98860.72
2023-03-26T23:09:19.160Z,98834.31
2023-03-26T23:12:08.425Z,98876.53
2023-03-26T23:14:55.504Z,98851.28
2023-03-26T23:17:46.438Z,98866.72
2023-03-26T23:20:45.228Z,98875.16
2023-03-26T23:23:33.839Z,98870.63
2023-03-26T23:26:21.579Z,98811.03
2023-03-26T23:29:08.585Z,98819.28
2023-03-26T23:31:56.270Z,98831.41
2023-03-26T23:34:52.095Z,98860.34
2023-03-26T23:37:42.678Z,98826.00
2023-03-26T23:40:30.034Z,98882.88
2023-03-26T23:43:22.958Z,98885.69
2023-03-26T23:46:12.075Z,98822.25
2023-03-26T23:49:02.640Z,98863.03
2023-03-26T23:51:51.709Z,98881.69
2023-03-26T23:54:38.511Z,98893.06
2023-03-26T23:57:37.239Z,98886.19
